Airfield :
LOGIN :

Register | Disclaimer

   EN    FR    IT 

 










Legend :    VFR   Marginal VFR   IFR   Intensive IFR   Very Intensive IFR
Visi :
Ceiling :
>= 8 km
>= 3000ft
5 to 8 km
1000 to 3000 ft
1500m to 5 km
500 to 1000 ft
800 to 1500m
200 to 500 ft
< 800m
< 200 ft
Symbols :   Thunderstorms  Fog  Heavy snow  Heavy precipitations  Wind > 20 kt
SIGMETs :     Misc.  Thunderstorms  Icing  Turbulence  Mountain Waves  Volcanic Ashes






- Airport Elevation : 1 ft


EGCK - Caernarfon

CURRENT METAR :
  • 080220Z AUTO 24020KT 9999 BKN032/// 11/08 Q0995

EXPIRED METARs :
  • 080150Z AUTO 23021KT 9999 FEW029/// 11/08 Q0995
  • 080120Z AUTO 22020KT 9000 FEW002/// SCT009/// BKN027/// 12/10 Q0994 RERA
  • 080050Z AUTO 22021KT 8000 BKN005/// OVC015/// 12/11 Q0994
  • 080020Z AUTO 21025KT 9999 -RA BKN006/// 12/11 Q0994
  • 072350Z AUTO 21028G43KT 6000 -RA BKN002/// OVC010/// 12/11 Q0995 RERA

TAF TAF EGCK
Valid from the 08 at 03:00 until the 08 at 12:00 UTC


080158Z 0803/0812 24022KT 9999 SCT025
TEMPO 0803/0808 24025G35KT
PROB30
TEMPO 0803/0812 6000 SHRA BKN010
TEMPO 0808/0812 24028G43KT



MET'MAP, your aeronautical weather chart ! - Copyright ORBIFLY December 2007 - Disclaimer

ORBIFLY MET'MAP TEAM :

Programming & Development : Alexandra Zaïnal
Concept & original design : Baudouin d'Aumeries
Assistance for programming : Marc-Olivier Méhu
Technical & hardware support : Manuel Goepfert

Contact : metmap@orbifly.com




SOURCES & CREDITS :

   NOAA